sensor_id;sensor_type;location;lat;lon;timestamp;P1;durP1;ratioP1;P2;durP2;ratioP2
33830;SDS011;20137;48.834;8.732;2023-08-20T00:01:31;17.52;;;12.52;;
33830;SDS011;20137;48.834;8.732;2023-08-20T00:03:57;17.15;;;11.13;;
33830;SDS011;20137;48.834;8.732;2023-08-20T00:06:23;13.45;;;11.07;;
33830;SDS011;20137;48.834;8.732;2023-08-20T00:08:49;16.38;;;10.88;;
33830;SDS011;20137;48.834;8.732;2023-08-20T00:11:15;15.80;;;11.90;;
33830;SDS011;20137;48.834;8.732;2023-08-20T00:13:41;14.35;;;11.95;;
33830;SDS011;20137;48.834;8.732;2023-08-20T00:16:08;16.75;;;12.20;;
33830;SDS011;20137;48.834;8.732;2023-08-20T00:18:34;14.48;;;12.93;;
33830;SDS011;20137;48.834;8.732;2023-08-20T00:21:00;17.15;;;11.98;;
33830;SDS011;20137;48.834;8.732;2023-08-20T00:23:27;15.60;;;11.48;;
33830;SDS011;20137;48.834;8.732;2023-08-20T00:25:53;18.52;;;12.70;;
33830;SDS011;20137;48.834;8.732;2023-08-20T00:28:20;15.77;;;11.85;;
33830;SDS011;20137;48.834;8.732;2023-08-20T00:30:46;15.82;;;11.02;;
33830;SDS011;20137;48.834;8.732;2023-08-20T00:33:12;20.92;;;12.52;;
33830;SDS011;20137;48.834;8.732;2023-08-20T00:35:38;15.45;;;12.05;;
33830;SDS011;20137;48.834;8.732;2023-08-20T00:38:04;16.08;;;11.30;;
33830;SDS011;20137;48.834;8.732;2023-08-20T00:40:30;13.32;;;10.82;;
33830;SDS011;20137;48.834;8.732;2023-08-20T00:42:56;16.38;;;12.70;;
33830;SDS011;20137;48.834;8.732;2023-08-20T00:45:22;17.63;;;12.32;;
33830;SDS011;20137;48.834;8.732;2023-08-20T00:47:49;15.27;;;11.63;;
33830;SDS011;20137;48.834;8.732;2023-08-20T00:50:15;16.80;;;12.13;;
33830;SDS011;20137;48.834;8.732;2023-08-20T00:52:41;14.55;;;11.63;;
33830;SDS011;20137;48.834;8.732;2023-08-20T00:55:08;15.93;;;12.05;;
33830;SDS011;20137;48.834;8.732;2023-08-20T00:57:35;18.00;;;12.07;;
33830;SDS011;20137;48.834;8.732;2023-08-20T01:00:05;16.33;;;12.63;;
33830;SDS011;20137;48.834;8.732;2023-08-20T01:02:38;18.38;;;12.48;;
33830;SDS011;20137;48.834;8.732;2023-08-20T01:05:05;16.27;;;12.95;;
33830;SDS011;20137;48.834;8.732;2023-08-20T01:10:59;15.55;;;11.45;;
33830;SDS011;20137;48.834;8.732;2023-08-20T01:13:26;12.80;;;11.25;;
33830;SDS011;20137;48.834;8.732;2023-08-20T01:15:52;14.73;;;11.88;;
33830;SDS011;20137;48.834;8.732;2023-08-20T01:18:17;12.85;;;11.38;;
33830;SDS011;20137;48.834;8.732;2023-08-20T01:20:50;18.20;;;12.27;;
33830;SDS011;20137;48.834;8.732;2023-08-20T01:26:11;18.48;;;11.40;;
33830;SDS011;20137;48.834;8.732;2023-08-20T01:28:48;18.30;;;12.57;;
33830;SDS011;20137;48.834;8.732;2023-08-20T01:31:15;14.52;;;11.70;;
33830;SDS011;20137;48.834;8.732;2023-08-20T01:33:41;18.38;;;12.00;;
33830;SDS011;20137;48.834;8.732;2023-08-20T01:36:07;14.73;;;11.60;;
33830;SDS011;20137;48.834;8.732;2023-08-20T01:38:35;18.63;;;12.23;;
33830;SDS011;20137;48.834;8.732;2023-08-20T01:41:01;13.43;;;12.02;;
33830;SDS011;20137;48.834;8.732;2023-08-20T01:43:27;16.40;;;11.90;;
33830;SDS011;20137;48.834;8.732;2023-08-20T01:45:52;13.43;;;11.55;;
33830;SDS011;20137;48.834;8.732;2023-08-20T01:48:18;15.27;;;12.18;;
33830;SDS011;20137;48.834;8.732;2023-08-20T01:50:44;16.50;;;12.07;;
33830;SDS011;20137;48.834;8.732;2023-08-20T01:53:11;17.58;;;12.15;;
33830;SDS011;20137;48.834;8.732;2023-08-20T01:55:37;18.33;;;12.65;;
33830;SDS011;20137;48.834;8.732;2023-08-20T01:58:03;15.93;;;12.60;;
33830;SDS011;20137;48.834;8.732;2023-08-20T02:00:29;19.83;;;13.35;;
33830;SDS011;20137;48.834;8.732;2023-08-20T02:02:55;16.23;;;12.45;;
33830;SDS011;20137;48.834;8.732;2023-08-20T02:05:21;18.55;;;13.52;;
33830;SDS011;20137;48.834;8.732;2023-08-20T02:07:47;16.83;;;12.20;;
33830;SDS011;20137;48.834;8.732;2023-08-20T02:10:14;16.83;;;12.88;;
33830;SDS011;20137;48.834;8.732;2023-08-20T02:12:40;20.40;;;13.70;;
33830;SDS011;20137;48.834;8.732;2023-08-20T02:15:06;22.60;;;14.55;;
33830;SDS011;20137;48.834;8.732;2023-08-20T02:17:33;18.27;;;14.40;;
33830;SDS011;20137;48.834;8.732;2023-08-20T02:20:01;18.23;;;13.23;;
33830;SDS011;20137;48.834;8.732;2023-08-20T02:22:29;19.88;;;13.70;;
33830;SDS011;20137;48.834;8.732;2023-08-20T02:24:54;21.73;;;14.48;;
33830;SDS011;20137;48.834;8.732;2023-08-20T02:27:21;20.33;;;15.00;;
33830;SDS011;20137;48.834;8.732;2023-08-20T02:29:46;21.80;;;15.10;;
33830;SDS011;20137;48.834;8.732;2023-08-20T02:32:12;20.63;;;14.82;;
33830;SDS011;20137;48.834;8.732;2023-08-20T02:34:37;21.67;;;15.07;;
33830;SDS011;20137;48.834;8.732;2023-08-20T02:37:03;19.80;;;14.50;;
33830;SDS011;20137;48.834;8.732;2023-08-20T02:39:30;19.95;;;15.35;;
33830;SDS011;20137;48.834;8.732;2023-08-20T02:41:56;23.63;;;15.23;;
33830;SDS011;20137;48.834;8.732;2023-08-20T02:44:22;24.08;;;15.50;;
33830;SDS011;20137;48.834;8.732;2023-08-20T02:46:48;22.10;;;16.48;;
33830;SDS011;20137;48.834;8.732;2023-08-20T02:49:14;23.48;;;16.98;;
33830;SDS011;20137;48.834;8.732;2023-08-20T02:51:39;26.10;;;16.40;;
33830;SDS011;20137;48.834;8.732;2023-08-20T02:54:06;24.17;;;15.27;;
33830;SDS011;20137;48.834;8.732;2023-08-20T02:56:32;20.10;;;15.38;;
33830;SDS011;20137;48.834;8.732;2023-08-20T02:58:57;21.70;;;14.32;;
33830;SDS011;20137;48.834;8.732;2023-08-20T03:01:24;17.60;;;14.07;;
33830;SDS011;20137;48.834;8.732;2023-08-20T03:03:51;21.42;;;14.38;;
33830;SDS011;20137;48.834;8.732;2023-08-20T03:06:17;19.88;;;14.88;;
33830;SDS011;20137;48.834;8.732;2023-08-20T03:08:43;19.08;;;13.93;;
33830;SDS011;20137;48.834;8.732;2023-08-20T03:11:09;16.40;;;13.90;;
33830;SDS011;20137;48.834;8.732;2023-08-20T03:13:35;18.55;;;13.52;;
33830;SDS011;20137;48.834;8.732;2023-08-20T03:16:01;16.23;;;12.93;;
33830;SDS011;20137;48.834;8.732;2023-08-20T03:18:28;19.40;;;14.00;;
33830;SDS011;20137;48.834;8.732;2023-08-20T03:20:54;19.10;;;15.05;;
33830;SDS011;20137;48.834;8.732;2023-08-20T03:23:21;19.35;;;14.10;;
33830;SDS011;20137;48.834;8.732;2023-08-20T03:25:47;15.77;;;13.40;;
33830;SDS011;20137;48.834;8.732;2023-08-20T03:28:12;16.35;;;13.40;;
33830;SDS011;20137;48.834;8.732;2023-08-20T03:30:38;17.35;;;13.70;;
33830;SDS011;20137;48.834;8.732;2023-08-20T03:33:03;15.30;;;12.93;;
33830;SDS011;20137;48.834;8.732;2023-08-20T03:35:29;21.95;;;14.60;;
33830;SDS011;20137;48.834;8.732;2023-08-20T03:37:55;17.67;;;13.52;;
33830;SDS011;20137;48.834;8.732;2023-08-20T03:40:20;19.80;;;14.45;;
33830;SDS011;20137;48.834;8.732;2023-08-20T03:42:46;18.85;;;14.32;;
33830;SDS011;20137;48.834;8.732;2023-08-20T03:45:12;18.50;;;14.13;;
33830;SDS011;20137;48.834;8.732;2023-08-20T03:47:37;19.38;;;15.00;;
33830;SDS011;20137;48.834;8.732;2023-08-20T03:50:03;19.00;;;14.10;;
33830;SDS011;20137;48.834;8.732;2023-08-20T03:52:29;24.95;;;16.20;;
33830;SDS011;20137;48.834;8.732;2023-08-20T03:54:56;19.15;;;13.27;;
33830;SDS011;20137;48.834;8.732;2023-08-20T03:57:21;16.75;;;14.05;;
33830;SDS011;20137;48.834;8.732;2023-08-20T03:59:47;15.68;;;13.35;;
33830;SDS011;20137;48.834;8.732;2023-08-20T04:02:13;16.02;;;13.10;;
33830;SDS011;20137;48.834;8.732;2023-08-20T04:04:39;21.35;;;14.60;;
33830;SDS011;20137;48.834;8.732;2023-08-20T04:07:05;16.70;;;13.80;;
33830;SDS011;20137;48.834;8.732;2023-08-20T04:09:32;16.80;;;13.38;;
33830;SDS011;20137;48.834;8.732;2023-08-20T04:11:58;19.13;;;14.43;;
33830;SDS011;20137;48.834;8.732;2023-08-20T04:14:24;17.02;;;13.52;;
33830;SDS011;20137;48.834;8.732;2023-08-20T04:16:50;19.27;;;13.40;;
33830;SDS011;20137;48.834;8.732;2023-08-20T04:19:15;17.27;;;13.63;;
33830;SDS011;20137;48.834;8.732;2023-08-20T04:21:41;15.35;;;12.93;;
33830;SDS011;20137;48.834;8.732;2023-08-20T04:24:07;18.98;;;13.77;;
33830;SDS011;20137;48.834;8.732;2023-08-20T04:26:33;17.38;;;14.52;;
33830;SDS011;20137;48.834;8.732;2023-08-20T04:28:58;18.50;;;13.10;;
33830;SDS011;20137;48.834;8.732;2023-08-20T04:31:24;17.52;;;13.40;;
33830;SDS011;20137;48.834;8.732;2023-08-20T04:33:50;15.68;;;13.43;;
33830;SDS011;20137;48.834;8.732;2023-08-20T04:36:15;19.02;;;14.13;;
33830;SDS011;20137;48.834;8.732;2023-08-20T04:38:41;23.23;;;15.07;;
33830;SDS011;20137;48.834;8.732;2023-08-20T04:41:07;19.08;;;15.82;;
33830;SDS011;20137;48.834;8.732;2023-08-20T04:43:32;19.88;;;14.88;;
33830;SDS011;20137;48.834;8.732;2023-08-20T04:45:58;18.48;;;14.05;;
33830;SDS011;20137;48.834;8.732;2023-08-20T04:48:23;20.83;;;15.85;;
33830;SDS011;20137;48.834;8.732;2023-08-20T04:50:49;19.55;;;14.15;;
33830;SDS011;20137;48.834;8.732;2023-08-20T04:53:15;16.58;;;13.48;;
33830;SDS011;20137;48.834;8.732;2023-08-20T04:55:40;15.75;;;13.20;;
33830;SDS011;20137;48.834;8.732;2023-08-20T04:58:06;18.73;;;13.45;;
33830;SDS011;20137;48.834;8.732;2023-08-20T05:00:31;21.08;;;13.52;;
33830;SDS011;20137;48.834;8.732;2023-08-20T05:02:57;16.33;;;13.10;;
33830;SDS011;20137;48.834;8.732;2023-08-20T05:05:23;20.88;;;13.80;;
33830;SDS011;20137;48.834;8.732;2023-08-20T05:07:49;17.80;;;13.85;;
33830;SDS011;20137;48.834;8.732;2023-08-20T05:10:15;19.25;;;13.10;;
33830;SDS011;20137;48.834;8.732;2023-08-20T05:12:41;15.50;;;11.88;;
33830;SDS011;20137;48.834;8.732;2023-08-20T05:15:06;15.65;;;12.10;;
33830;SDS011;20137;48.834;8.732;2023-08-20T05:17:32;14.15;;;11.55;;
33830;SDS011;20137;48.834;8.732;2023-08-20T05:19:58;17.90;;;11.10;;
33830;SDS011;20137;48.834;8.732;2023-08-20T05:22:23;14.57;;;11.38;;
33830;SDS011;20137;48.834;8.732;2023-08-20T05:24:49;14.70;;;10.80;;
33830;SDS011;20137;48.834;8.732;2023-08-20T05:27:15;12.15;;;10.63;;
33830;SDS011;20137;48.834;8.732;2023-08-20T05:29:44;11.93;;;10.55;;
33830;SDS011;20137;48.834;8.732;2023-08-20T05:32:10;14.63;;;11.45;;
33830;SDS011;20137;48.834;8.732;2023-08-20T05:34:36;18.85;;;11.43;;
33830;SDS011;20137;48.834;8.732;2023-08-20T05:37:02;11.38;;;10.07;;
33830;SDS011;20137;48.834;8.732;2023-08-20T05:39:29;11.70;;;9.27;;
33830;SDS011;20137;48.834;8.732;2023-08-20T05:41:56;16.65;;;10.85;;
33830;SDS011;20137;48.834;8.732;2023-08-20T05:44:21;18.33;;;11.20;;
33830;SDS011;20137;48.834;8.732;2023-08-20T05:46:47;14.70;;;10.57;;
33830;SDS011;20137;48.834;8.732;2023-08-20T05:49:13;13.75;;;10.15;;
33830;SDS011;20137;48.834;8.732;2023-08-20T05:51:41;15.90;;;10.90;;
33830;SDS011;20137;48.834;8.732;2023-08-20T05:54:07;15.55;;;10.02;;
33830;SDS011;20137;48.834;8.732;2023-08-20T05:56:33;13.55;;;10.30;;
33830;SDS011;20137;48.834;8.732;2023-08-20T05:58:58;13.43;;;9.90;;
33830;SDS011;20137;48.834;8.732;2023-08-20T06:01:24;12.98;;;9.35;;
33830;SDS011;20137;48.834;8.732;2023-08-20T06:03:49;10.20;;;8.75;;
33830;SDS011;20137;48.834;8.732;2023-08-20T06:06:15;10.52;;;8.77;;
33830;SDS011;20137;48.834;8.732;2023-08-20T06:08:41;9.45;;;8.20;;
33830;SDS011;20137;48.834;8.732;2023-08-20T06:11:07;11.25;;;8.27;;
33830;SDS011;20137;48.834;8.732;2023-08-20T06:13:32;15.20;;;9.13;;
33830;SDS011;20137;48.834;8.732;2023-08-20T06:15:58;17.92;;;10.18;;
33830;SDS011;20137;48.834;8.732;2023-08-20T06:18:23;15.05;;;9.63;;
33830;SDS011;20137;48.834;8.732;2023-08-20T06:20:49;12.18;;;7.45;;
33830;SDS011;20137;48.834;8.732;2023-08-20T06:23:15;14.15;;;9.68;;
33830;SDS011;20137;48.834;8.732;2023-08-20T06:25:40;10.98;;;8.40;;
33830;SDS011;20137;48.834;8.732;2023-08-20T06:28:06;9.85;;;8.45;;
33830;SDS011;20137;48.834;8.732;2023-08-20T06:30:33;12.65;;;8.75;;
33830;SDS011;20137;48.834;8.732;2023-08-20T06:32:58;11.05;;;8.70;;
33830;SDS011;20137;48.834;8.732;2023-08-20T06:35:24;13.40;;;9.32;;
33830;SDS011;20137;48.834;8.732;2023-08-20T06:37:50;12.55;;;9.00;;
33830;SDS011;20137;48.834;8.732;2023-08-20T06:40:15;12.00;;;8.93;;
33830;SDS011;20137;48.834;8.732;2023-08-20T06:42:41;12.77;;;8.93;;
33830;SDS011;20137;48.834;8.732;2023-08-20T06:45:06;16.30;;;10.13;;
33830;SDS011;20137;48.834;8.732;2023-08-20T06:47:34;12.93;;;8.70;;
33830;SDS011;20137;48.834;8.732;2023-08-20T06:55:00;14.05;;;8.45;;
33830;SDS011;20137;48.834;8.732;2023-08-20T06:57:26;17.52;;;8.90;;
33830;SDS011;20137;48.834;8.732;2023-08-20T06:59:51;13.48;;;8.15;;
33830;SDS011;20137;48.834;8.732;2023-08-20T07:02:17;12.52;;;8.43;;
33830;SDS011;20137;48.834;8.732;2023-08-20T07:04:43;16.45;;;8.32;;
33830;SDS011;20137;48.834;8.732;2023-08-20T07:07:08;15.60;;;8.20;;
33830;SDS011;20137;48.834;8.732;2023-08-20T07:09:34;10.95;;;7.70;;
33830;SDS011;20137;48.834;8.732;2023-08-20T07:12:00;11.85;;;8.18;;
33830;SDS011;20137;48.834;8.732;2023-08-20T07:14:26;11.40;;;8.73;;
33830;SDS011;20137;48.834;8.732;2023-08-20T07:16:52;12.73;;;8.50;;
33830;SDS011;20137;48.834;8.732;2023-08-20T07:19:17;11.50;;;8.27;;
33830;SDS011;20137;48.834;8.732;2023-08-20T07:21:43;13.25;;;8.20;;
33830;SDS011;20137;48.834;8.732;2023-08-20T07:24:09;14.38;;;7.22;;
33830;SDS011;20137;48.834;8.732;2023-08-20T07:26:34;12.85;;;7.68;;
33830;SDS011;20137;48.834;8.732;2023-08-20T07:29:00;11.23;;;7.72;;
33830;SDS011;20137;48.834;8.732;2023-08-20T07:31:26;10.45;;;7.97;;
33830;SDS011;20137;48.834;8.732;2023-08-20T07:33:53;16.92;;;7.93;;
33830;SDS011;20137;48.834;8.732;2023-08-20T07:36:21;11.05;;;8.07;;
33830;SDS011;20137;48.834;8.732;2023-08-20T07:38:47;14.00;;;8.68;;
33830;SDS011;20137;48.834;8.732;2023-08-20T07:41:13;12.05;;;7.93;;
33830;SDS011;20137;48.834;8.732;2023-08-20T07:43:39;10.23;;;7.60;;
33830;SDS011;20137;48.834;8.732;2023-08-20T07:46:05;14.13;;;9.02;;
33830;SDS011;20137;48.834;8.732;2023-08-20T07:48:32;9.50;;;7.55;;
33830;SDS011;20137;48.834;8.732;2023-08-20T07:50:59;13.30;;;8.23;;
33830;SDS011;20137;48.834;8.732;2023-08-20T07:53:25;13.93;;;8.38;;
33830;SDS011;20137;48.834;8.732;2023-08-20T07:55:50;12.88;;;9.13;;
33830;SDS011;20137;48.834;8.732;2023-08-20T07:58:16;12.15;;;8.10;;
33830;SDS011;20137;48.834;8.732;2023-08-20T08:00:42;10.35;;;8.05;;
33830;SDS011;20137;48.834;8.732;2023-08-20T08:03:08;14.27;;;8.68;;
33830;SDS011;20137;48.834;8.732;2023-08-20T08:05:34;16.83;;;7.70;;
33830;SDS011;20137;48.834;8.732;2023-08-20T08:08:00;14.82;;;9.25;;
33830;SDS011;20137;48.834;8.732;2023-08-20T08:10:26;13.32;;;9.48;;
33830;SDS011;20137;48.834;8.732;2023-08-20T08:12:52;13.63;;;9.13;;
33830;SDS011;20137;48.834;8.732;2023-08-20T08:15:17;12.73;;;8.68;;
33830;SDS011;20137;48.834;8.732;2023-08-20T08:17:43;13.60;;;8.80;;
33830;SDS011;20137;48.834;8.732;2023-08-20T08:20:09;13.18;;;8.75;;
33830;SDS011;20137;48.834;8.732;2023-08-20T08:22:35;13.30;;;8.88;;
33830;SDS011;20137;48.834;8.732;2023-08-20T08:25:10;12.05;;;8.30;;
33830;SDS011;20137;48.834;8.732;2023-08-20T08:27:36;12.40;;;8.82;;
33830;SDS011;20137;48.834;8.732;2023-08-20T08:30:01;15.30;;;9.35;;
33830;SDS011;20137;48.834;8.732;2023-08-20T08:32:28;15.68;;;8.15;;
33830;SDS011;20137;48.834;8.732;2023-08-20T08:34:54;12.70;;;8.60;;
33830;SDS011;20137;48.834;8.732;2023-08-20T08:37:19;17.55;;;7.95;;
33830;SDS011;20137;48.834;8.732;2023-08-20T08:39:45;12.18;;;8.82;;
33830;SDS011;20137;48.834;8.732;2023-08-20T08:42:11;13.20;;;7.63;;
33830;SDS011;20137;48.834;8.732;2023-08-20T08:44:38;11.57;;;8.05;;
33830;SDS011;20137;48.834;8.732;2023-08-20T08:47:04;10.23;;;7.80;;
33830;SDS011;20137;48.834;8.732;2023-08-20T08:49:33;12.07;;;7.93;;
33830;SDS011;20137;48.834;8.732;2023-08-20T08:51:59;11.63;;;8.07;;
33830;SDS011;20137;48.834;8.732;2023-08-20T08:54:26;11.15;;;8.18;;
33830;SDS011;20137;48.834;8.732;2023-08-20T08:56:52;10.43;;;8.07;;
33830;SDS011;20137;48.834;8.732;2023-08-20T08:59:18;15.18;;;7.60;;
33830;SDS011;20137;48.834;8.732;2023-08-20T09:01:44;11.23;;;7.72;;
33830;SDS011;20137;48.834;8.732;2023-08-20T09:04:10;11.35;;;8.27;;
33830;SDS011;20137;48.834;8.732;2023-08-20T09:06:48;10.00;;;8.10;;
33830;SDS011;20137;48.834;8.732;2023-08-20T09:09:16;11.20;;;7.50;;
33830;SDS011;20137;48.834;8.732;2023-08-20T09:11:42;12.38;;;7.53;;
33830;SDS011;20137;48.834;8.732;2023-08-20T09:14:08;12.90;;;7.75;;
33830;SDS011;20137;48.834;8.732;2023-08-20T09:16:46;13.93;;;8.20;;
33830;SDS011;20137;48.834;8.732;2023-08-20T09:19:12;11.13;;;8.07;;
33830;SDS011;20137;48.834;8.732;2023-08-20T09:21:38;14.00;;;8.02;;
33830;SDS011;20137;48.834;8.732;2023-08-20T09:24:04;9.35;;;8.07;;
33830;SDS011;20137;48.834;8.732;2023-08-20T09:26:30;12.95;;;8.05;;
33830;SDS011;20137;48.834;8.732;2023-08-20T09:28:56;13.52;;;8.73;;
33830;SDS011;20137;48.834;8.732;2023-08-20T09:31:36;12.07;;;7.28;;
33830;SDS011;20137;48.834;8.732;2023-08-20T09:34:03;12.80;;;8.40;;
33830;SDS011;20137;48.834;8.732;2023-08-20T09:36:32;11.27;;;8.60;;
33830;SDS011;20137;48.834;8.732;2023-08-20T09:39:00;10.88;;;8.23;;
33830;SDS011;20137;48.834;8.732;2023-08-20T09:41:27;17.00;;;7.55;;
33830;SDS011;20137;48.834;8.732;2023-08-20T09:43:58;11.35;;;7.95;;
33830;SDS011;20137;48.834;8.732;2023-08-20T09:46:25;13.15;;;7.47;;
33830;SDS011;20137;48.834;8.732;2023-08-20T09:48:52;13.30;;;7.95;;
33830;SDS011;20137;48.834;8.732;2023-08-20T09:51:25;13.75;;;9.02;;
33830;SDS011;20137;48.834;8.732;2023-08-20T09:53:55;9.57;;;7.68;;
33830;SDS011;20137;48.834;8.732;2023-08-20T09:56:36;11.40;;;7.57;;
33830;SDS011;20137;48.834;8.732;2023-08-20T09:59:04;10.55;;;7.72;;
33830;SDS011;20137;48.834;8.732;2023-08-20T10:01:29;11.90;;;7.43;;
33830;SDS011;20137;48.834;8.732;2023-08-20T10:03:55;9.77;;;7.63;;
33830;SDS011;20137;48.834;8.732;2023-08-20T10:06:22;11.57;;;7.20;;
33830;SDS011;20137;48.834;8.732;2023-08-20T10:08:48;12.40;;;7.55;;
33830;SDS011;20137;48.834;8.732;2023-08-20T10:11:16;10.75;;;7.47;;
33830;SDS011;20137;48.834;8.732;2023-08-20T10:13:42;10.38;;;7.60;;
33830;SDS011;20137;48.834;8.732;2023-08-20T10:16:08;12.23;;;8.07;;
33830;SDS011;20137;48.834;8.732;2023-08-20T10:18:36;10.95;;;7.82;;
33830;SDS011;20137;48.834;8.732;2023-08-20T10:21:02;8.15;;;7.28;;
33830;SDS011;20137;48.834;8.732;2023-08-20T10:23:30;12.48;;;7.60;;
33830;SDS011;20137;48.834;8.732;2023-08-20T10:26:06;10.40;;;7.65;;
33830;SDS011;20137;48.834;8.732;2023-08-20T10:28:34;9.52;;;7.15;;
33830;SDS011;20137;48.834;8.732;2023-08-20T10:31:10;15.40;;;7.53;;
33830;SDS011;20137;48.834;8.732;2023-08-20T10:36:24;9.25;;;7.28;;
33830;SDS011;20137;48.834;8.732;2023-08-20T10:39:01;15.67;;;7.63;;
33830;SDS011;20137;48.834;8.732;2023-08-20T10:41:30;11.38;;;6.80;;
33830;SDS011;20137;48.834;8.732;2023-08-20T10:43:58;11.73;;;7.22;;
33830;SDS011;20137;48.834;8.732;2023-08-20T10:46:26;10.52;;;7.15;;
33830;SDS011;20137;48.834;8.732;2023-08-20T10:48:58;13.07;;;6.93;;
33830;SDS011;20137;48.834;8.732;2023-08-20T10:51:27;10.82;;;6.78;;
33830;SDS011;20137;48.834;8.732;2023-08-20T10:56:47;10.43;;;6.68;;
33830;SDS011;20137;48.834;8.732;2023-08-20T11:01:51;13.75;;;6.80;;
33830;SDS011;20137;48.834;8.732;2023-08-20T11:04:24;12.55;;;7.65;;
33830;SDS011;20137;48.834;8.732;2023-08-20T11:06:59;9.68;;;7.43;;
33830;SDS011;20137;48.834;8.732;2023-08-20T11:09:26;9.90;;;6.70;;
33830;SDS011;20137;48.834;8.732;2023-08-20T11:11:54;11.25;;;6.80;;
33830;SDS011;20137;48.834;8.732;2023-08-20T11:14:20;10.93;;;7.00;;
33830;SDS011;20137;48.834;8.732;2023-08-20T11:16:47;12.80;;;7.30;;
33830;SDS011;20137;48.834;8.732;2023-08-20T11:19:13;12.35;;;6.78;;
33830;SDS011;20137;48.834;8.732;2023-08-20T11:21:43;9.93;;;7.10;;
33830;SDS011;20137;48.834;8.732;2023-08-20T11:24:09;11.43;;;7.28;;
33830;SDS011;20137;48.834;8.732;2023-08-20T11:26:35;11.20;;;7.07;;
33830;SDS011;20137;48.834;8.732;2023-08-20T11:29:11;11.15;;;6.70;;
33830;SDS011;20137;48.834;8.732;2023-08-20T11:31:38;8.10;;;7.00;;
33830;SDS011;20137;48.834;8.732;2023-08-20T11:34:04;11.85;;;6.60;;
33830;SDS011;20137;48.834;8.732;2023-08-20T11:36:30;10.82;;;6.93;;
33830;SDS011;20137;48.834;8.732;2023-08-20T11:38:56;8.30;;;6.65;;
33830;SDS011;20137;48.834;8.732;2023-08-20T11:41:23;10.43;;;7.38;;
33830;SDS011;20137;48.834;8.732;2023-08-20T11:43:50;10.57;;;7.35;;
33830;SDS011;20137;48.834;8.732;2023-08-20T11:46:18;11.73;;;7.22;;
33830;SDS011;20137;48.834;8.732;2023-08-20T11:49:03;12.23;;;7.18;;
33830;SDS011;20137;48.834;8.732;2023-08-20T11:51:37;9.80;;;6.65;;
33830;SDS011;20137;48.834;8.732;2023-08-20T11:54:13;9.30;;;6.50;;
33830;SDS011;20137;48.834;8.732;2023-08-20T11:56:47;8.70;;;6.90;;
33830;SDS011;20137;48.834;8.732;2023-08-20T11:59:14;11.25;;;6.95;;
33830;SDS011;20137;48.834;8.732;2023-08-20T12:01:41;9.63;;;6.40;;
33830;SDS011;20137;48.834;8.732;2023-08-20T12:04:07;13.23;;;6.90;;
33830;SDS011;20137;48.834;8.732;2023-08-20T12:06:34;10.30;;;5.90;;
33830;SDS011;20137;48.834;8.732;2023-08-20T12:09:01;10.70;;;6.18;;
33830;SDS011;20137;48.834;8.732;2023-08-20T12:11:30;11.35;;;6.68;;
33830;SDS011;20137;48.834;8.732;2023-08-20T12:13:56;8.68;;;6.60;;
33830;SDS011;20137;48.834;8.732;2023-08-20T12:16:23;10.38;;;6.80;;
33830;SDS011;20137;48.834;8.732;2023-08-20T12:18:50;11.27;;;6.78;;
33830;SDS011;20137;48.834;8.732;2023-08-20T12:21:16;10.43;;;6.72;;
33830;SDS011;20137;48.834;8.732;2023-08-20T12:23:42;10.50;;;6.55;;
33830;SDS011;20137;48.834;8.732;2023-08-20T12:26:08;6.72;;;5.80;;
33830;SDS011;20137;48.834;8.732;2023-08-20T12:28:33;8.43;;;5.82;;
33830;SDS011;20137;48.834;8.732;2023-08-20T12:30:59;9.50;;;6.10;;
33830;SDS011;20137;48.834;8.732;2023-08-20T12:33:25;9.85;;;6.22;;
33830;SDS011;20137;48.834;8.732;2023-08-20T12:35:54;9.77;;;6.90;;
33830;SDS011;20137;48.834;8.732;2023-08-20T12:38:20;9.27;;;6.10;;
33830;SDS011;20137;48.834;8.732;2023-08-20T12:40:47;11.35;;;6.40;;
33830;SDS011;20137;48.834;8.732;2023-08-20T12:43:12;10.07;;;6.07;;
33830;SDS011;20137;48.834;8.732;2023-08-20T12:45:38;10.57;;;6.72;;
33830;SDS011;20137;48.834;8.732;2023-08-20T12:48:04;10.57;;;6.00;;
33830;SDS011;20137;48.834;8.732;2023-08-20T12:50:30;12.30;;;6.40;;
33830;SDS011;20137;48.834;8.732;2023-08-20T12:52:56;8.73;;;6.10;;
33830;SDS011;20137;48.834;8.732;2023-08-20T12:55:22;10.70;;;5.45;;
33830;SDS011;20137;48.834;8.732;2023-08-20T12:57:52;8.73;;;6.60;;
33830;SDS011;20137;48.834;8.732;2023-08-20T13:00:22;13.35;;;7.00;;
33830;SDS011;20137;48.834;8.732;2023-08-20T13:02:50;11.98;;;6.30;;
33830;SDS011;20137;48.834;8.732;2023-08-20T13:05:16;12.38;;;6.32;;
33830;SDS011;20137;48.834;8.732;2023-08-20T13:07:42;9.93;;;6.00;;
33830;SDS011;20137;48.834;8.732;2023-08-20T13:10:08;9.68;;;6.45;;
33830;SDS011;20137;48.834;8.732;2023-08-20T13:12:35;9.15;;;6.32;;
33830;SDS011;20137;48.834;8.732;2023-08-20T13:15:04;9.52;;;6.32;;
33830;SDS011;20137;48.834;8.732;2023-08-20T13:17:31;13.30;;;7.00;;
33830;SDS011;20137;48.834;8.732;2023-08-20T13:19:57;8.40;;;5.95;;
33830;SDS011;20137;48.834;8.732;2023-08-20T13:22:22;14.15;;;6.32;;
33830;SDS011;20137;48.834;8.732;2023-08-20T13:24:48;7.82;;;6.30;;
33830;SDS011;20137;48.834;8.732;2023-08-20T13:27:16;8.75;;;5.85;;
33830;SDS011;20137;48.834;8.732;2023-08-20T13:29:43;12.05;;;6.18;;
33830;SDS011;20137;48.834;8.732;2023-08-20T13:32:08;17.95;;;6.53;;
33830;SDS011;20137;48.834;8.732;2023-08-20T13:34:34;9.38;;;6.40;;
33830;SDS011;20137;48.834;8.732;2023-08-20T13:37:00;9.57;;;6.20;;
33830;SDS011;20137;48.834;8.732;2023-08-20T13:39:25;11.00;;;5.82;;
33830;SDS011;20137;48.834;8.732;2023-08-20T13:41:51;8.02;;;5.65;;
33830;SDS011;20137;48.834;8.732;2023-08-20T13:44:17;8.52;;;6.32;;
33830;SDS011;20137;48.834;8.732;2023-08-20T13:49:18;9.15;;;5.68;;
33830;SDS011;20137;48.834;8.732;2023-08-20T13:51:44;7.15;;;5.70;;
33830;SDS011;20137;48.834;8.732;2023-08-20T13:54:10;10.35;;;5.72;;
33830;SDS011;20137;48.834;8.732;2023-08-20T13:56:35;11.35;;;5.43;;
33830;SDS011;20137;48.834;8.732;2023-08-20T13:59:01;8.63;;;5.53;;
33830;SDS011;20137;48.834;8.732;2023-08-20T14:01:27;11.20;;;5.80;;
33830;SDS011;20137;48.834;8.732;2023-08-20T14:03:53;8.02;;;5.25;;
33830;SDS011;20137;48.834;8.732;2023-08-20T14:06:19;11.93;;;6.00;;
33830;SDS011;20137;48.834;8.732;2023-08-20T14:08:45;12.00;;;6.30;;
33830;SDS011;20137;48.834;8.732;2023-08-20T14:11:10;6.93;;;5.63;;
33830;SDS011;20137;48.834;8.732;2023-08-20T14:13:36;7.75;;;5.80;;
33830;SDS011;20137;48.834;8.732;2023-08-20T14:16:02;13.05;;;6.30;;
33830;SDS011;20137;48.834;8.732;2023-08-20T14:18:28;10.00;;;5.90;;
33830;SDS011;20137;48.834;8.732;2023-08-20T14:20:53;7.93;;;5.60;;
33830;SDS011;20137;48.834;8.732;2023-08-20T14:23:19;9.45;;;6.00;;
33830;SDS011;20137;48.834;8.732;2023-08-20T14:25:45;12.00;;;6.35;;
33830;SDS011;20137;48.834;8.732;2023-08-20T14:28:10;10.70;;;5.85;;
33830;SDS011;20137;48.834;8.732;2023-08-20T14:30:36;9.45;;;5.43;;
33830;SDS011;20137;48.834;8.732;2023-08-20T14:33:03;9.20;;;5.65;;
33830;SDS011;20137;48.834;8.732;2023-08-20T14:35:29;9.73;;;6.10;;
33830;SDS011;20137;48.834;8.732;2023-08-20T14:37:56;10.55;;;5.88;;
33830;SDS011;20137;48.834;8.732;2023-08-20T14:40:21;8.57;;;6.10;;
33830;SDS011;20137;48.834;8.732;2023-08-20T14:42:48;9.00;;;6.05;;
33830;SDS011;20137;48.834;8.732;2023-08-20T14:45:14;11.38;;;6.47;;
33830;SDS011;20137;48.834;8.732;2023-08-20T14:47:40;8.98;;;7.00;;
33830;SDS011;20137;48.834;8.732;2023-08-20T14:50:06;9.20;;;6.07;;